createdAt,value
2023-04-17T00:00:37.737Z,21.55
2023-04-17T00:02:41.375Z,22.63
2023-04-17T00:04:45.582Z,21.70
2023-04-17T00:06:49.620Z,21.55
2023-04-17T00:08:52.916Z,22.77
2023-04-17T00:11:06.514Z,22.33
2023-04-17T00:13:11.550Z,22.70
2023-04-17T00:15:14.851Z,21.77
2023-04-17T00:17:19.599Z,22.95
2023-04-17T00:19:22.974Z,21.65
2023-04-17T00:21:26.368Z,22.80
2023-04-17T00:23:29.718Z,21.17
2023-04-17T00:25:33.098Z,23.95
2023-04-17T00:27:36.403Z,21.75
2023-04-17T00:29:39.735Z,22.95
2023-04-17T00:31:43.596Z,22.42
2023-04-17T00:33:48.411Z,23.90
2023-04-17T00:35:51.711Z,22.83
2023-04-17T00:37:55.018Z,23.25
2023-04-17T00:39:58.608Z,23.98
2023-04-17T00:42:02.661Z,22.92
2023-04-17T00:44:06.155Z,23.13
2023-04-17T00:46:10.484Z,23.58
2023-04-17T00:48:16.875Z,23.27
2023-04-17T00:50:22.229Z,24.33
2023-04-17T00:52:30.017Z,23.40
2023-04-17T00:54:34.217Z,23.65
2023-04-17T00:56:37.831Z,23.67
2023-04-17T00:58:42.139Z,24.38
2023-04-17T01:00:46.086Z,24.75
2023-04-17T01:02:49.487Z,24.52
2023-04-17T01:04:52.887Z,24.35
2023-04-17T01:06:59.502Z,24.33
2023-04-17T01:09:05.271Z,24.65
2023-04-17T01:11:08.851Z,24.77
2023-04-17T01:13:12.405Z,24.80
2023-04-17T01:15:17.920Z,24.20
2023-04-17T01:17:21.856Z,25.15
2023-04-17T01:19:25.793Z,23.67
2023-04-17T01:21:29.214Z,23.70
2023-04-17T01:23:45.197Z,24.42
2023-04-17T01:25:51.324Z,24.80
2023-04-17T01:27:55.237Z,25.42
2023-04-17T01:29:58.569Z,25.40
2023-04-17T01:32:01.971Z,25.88
2023-04-17T01:34:05.689Z,24.80
2023-04-17T01:36:09.429Z,24.50
2023-04-17T01:38:12.775Z,24.95
2023-04-17T01:40:16.208Z,25.58
2023-04-17T01:42:20.938Z,24.98
2023-04-17T01:44:24.294Z,25.10
2023-04-17T01:46:27.716Z,25.67
2023-04-17T01:48:31.723Z,24.73
2023-04-17T01:50:35.209Z,25.80
2023-04-17T01:52:39.932Z,24.65
2023-04-17T01:54:43.340Z,25.58
2023-04-17T01:56:46.947Z,25.80
2023-04-17T01:58:51.787Z,25.70
2023-04-17T02:00:55.837Z,26.05
2023-04-17T02:02:59.284Z,25.60
2023-04-17T02:05:03.092Z,26.70
2023-04-17T02:07:06.583Z,26.50
2023-04-17T02:09:10.302Z,26.80
2023-04-17T02:11:15.940Z,27.73
2023-04-17T02:13:19.381Z,26.58
2023-04-17T02:15:24.217Z,27.25
2023-04-17T02:17:27.668Z,27.77
2023-04-17T02:19:31.115Z,28.00
2023-04-17T02:21:34.424Z,26.85
2023-04-17T02:23:37.801Z,27.85
2023-04-17T02:25:41.129Z,27.70
2023-04-17T02:27:44.494Z,28.10
2023-04-17T02:29:47.844Z,27.77
2023-04-17T02:31:52.661Z,26.33
2023-04-17T02:33:56.033Z,27.23
2023-04-17T02:35:59.940Z,27.90
2023-04-17T02:38:11.272Z,27.20
2023-04-17T02:40:16.336Z,26.73
2023-04-17T02:42:19.673Z,26.63
2023-04-17T02:44:23.493Z,27.80
2023-04-17T02:46:27.178Z,27.92
2023-04-17T02:48:32.106Z,28.48
2023-04-17T02:50:35.737Z,27.38
2023-04-17T02:52:53.024Z,26.75
2023-04-17T02:54:56.943Z,28.25
2023-04-17T02:57:01.817Z,27.02
2023-04-17T02:59:05.208Z,29.25
2023-04-17T03:01:09.003Z,29.27
2023-04-17T03:03:17.187Z,29.00
2023-04-17T03:05:23.401Z,29.23
2023-04-17T03:07:28.987Z,29.17
2023-04-17T03:09:32.324Z,30.23
2023-04-17T03:11:35.830Z,29.83
2023-04-17T03:13:39.207Z,30.27
2023-04-17T03:15:42.791Z,30.45
2023-04-17T03:17:46.265Z,30.42
2023-04-17T03:19:49.688Z,29.55
2023-04-17T03:21:54.515Z,29.90
2023-04-17T03:23:58.192Z,30.13
2023-04-17T03:26:01.877Z,31.85
2023-04-17T03:28:08.451Z,31.45
2023-04-17T03:30:12.789Z,33.17
2023-04-17T03:32:22.393Z,32.08
2023-04-17T03:34:26.241Z,33.03
2023-04-17T03:36:29.797Z,34.47
2023-04-17T03:38:37.157Z,34.47
2023-04-17T03:40:42.386Z,34.22
2023-04-17T03:42:47.182Z,35.13
2023-04-17T03:44:50.567Z,33.50
2023-04-17T03:46:54.348Z,34.30
2023-04-17T03:48:57.718Z,35.15
2023-04-17T03:51:01.334Z,34.72
2023-04-17T03:53:05.828Z,35.92
2023-04-17T03:55:12.484Z,35.60
2023-04-17T03:57:16.215Z,35.42
2023-04-17T03:59:20.158Z,36.03
2023-04-17T04:01:23.737Z,35.97
2023-04-17T04:03:40.231Z,35.08
2023-04-17T04:05:44.716Z,35.67
2023-04-17T04:07:48.171Z,36.33
2023-04-17T04:09:58.535Z,35.28
2023-04-17T04:12:03.746Z,35.33
2023-04-17T04:14:11.012Z,36.70
2023-04-17T04:16:15.318Z,35.80
2023-04-17T04:18:18.944Z,36.47
2023-04-17T04:20:23.275Z,35.65
2023-04-17T04:22:31.635Z,37.47
2023-04-17T04:24:35.359Z,36.22
2023-04-17T04:26:40.987Z,34.08
2023-04-17T04:28:47.565Z,36.85
2023-04-17T04:31:04.556Z,35.97
2023-04-17T04:33:13.451Z,35.03
2023-04-17T04:35:17.594Z,34.75
2023-04-17T04:37:22.011Z,35.08
2023-04-17T04:39:30.025Z,35.67
2023-04-17T04:41:35.580Z,34.80
2023-04-17T04:43:42.372Z,36.92
2023-04-17T04:45:47.916Z,37.33
2023-04-17T04:47:51.624Z,34.85
2023-04-17T04:49:55.004Z,36.35
2023-04-17T04:51:59.517Z,35.97
2023-04-17T04:54:08.325Z,36.35
2023-04-17T04:58:25.601Z,35.78
2023-04-17T05:00:32.842Z,35.85
2023-04-17T05:02:38.699Z,36.47
2023-04-17T05:04:45.221Z,36.17
2023-04-17T05:06:48.923Z,37.30
2023-04-17T05:08:52.754Z,37.78
2023-04-17T05:10:56.126Z,36.45
2023-04-17T05:12:59.774Z,37.90
2023-04-17T05:15:03.456Z,37.20
2023-04-17T05:17:07.307Z,36.88
2023-04-17T05:19:12.554Z,35.55
2023-04-17T05:21:31.109Z,36.80
2023-04-17T05:23:34.821Z,35.75
2023-04-17T05:25:38.176Z,35.78
2023-04-17T05:27:43.684Z,34.80
2023-04-17T05:29:48.177Z,35.40
2023-04-17T05:31:51.762Z,34.72
2023-04-17T05:34:26.194Z,35.85
2023-04-17T05:36:31.546Z,34.75
2023-04-17T05:38:46.031Z,34.55
2023-04-17T05:41:02.649Z,33.40
2023-04-17T05:43:09.532Z,34.83
2023-04-17T05:45:14.634Z,34.30
2023-04-17T05:47:17.996Z,34.55
2023-04-17T05:49:21.406Z,33.63
2023-04-17T05:51:26.333Z,35.13
2023-04-17T05:53:31.189Z,34.72
2023-04-17T05:55:35.448Z,35.28
2023-04-17T05:57:40.853Z,35.45
2023-04-17T05:59:44.632Z,35.53
2023-04-17T06:01:48.770Z,35.67
2023-04-17T06:03:56.138Z,34.10
2023-04-17T06:06:03.009Z,33.95
2023-04-17T06:08:08.950Z,34.97
2023-04-17T06:10:12.887Z,33.38
2023-04-17T06:12:16.407Z,33.90
2023-04-17T06:14:21.185Z,35.05
2023-04-17T06:16:24.645Z,33.92
2023-04-17T06:18:28.110Z,33.72
2023-04-17T06:20:31.576Z,34.10
2023-04-17T06:22:35.130Z,34.40
2023-04-17T06:24:39.920Z,33.45
2023-04-17T06:26:43.304Z,32.50
2023-04-17T06:28:46.665Z,33.08
2023-04-17T06:30:50.166Z,32.83
2023-04-17T06:32:54.749Z,31.95
2023-04-17T06:34:59.730Z,31.67
2023-04-17T06:37:25.946Z,31.73
2023-04-17T06:39:29.292Z,31.50
2023-04-17T06:41:37.127Z,32.28
2023-04-17T06:43:40.461Z,31.15
2023-04-17T06:45:51.117Z,30.27
2023-04-17T06:47:54.623Z,29.55
2023-04-17T06:49:59.948Z,30.10
2023-04-17T06:52:03.514Z,29.80
2023-04-17T06:54:06.956Z,30.23
2023-04-17T06:56:10.241Z,27.45
2023-04-17T06:58:15.185Z,28.95
2023-04-17T07:00:19.323Z,28.50
2023-04-17T07:02:22.926Z,28.50
2023-04-17T07:04:27.190Z,28.40
2023-04-17T07:06:31.604Z,27.80
2023-04-17T07:08:35.207Z,29.23
2023-04-17T07:10:38.664Z,28.58
2023-04-17T07:12:42.045Z,27.33
2023-04-17T07:14:46.748Z,26.75
2023-04-17T07:16:50.504Z,27.77
2023-04-17T07:18:54.145Z,27.95
2023-04-17T07:20:57.879Z,26.83
2023-04-17T07:23:01.328Z,26.88
2023-04-17T07:25:05.701Z,27.13
2023-04-17T07:27:09.146Z,26.15
2023-04-17T07:29:12.655Z,25.20
2023-04-17T07:31:18.254Z,26.27
2023-04-17T07:33:21.677Z,26.00
2023-04-17T07:35:25.240Z,25.73
2023-04-17T07:37:28.678Z,24.38
2023-04-17T07:39:32.032Z,24.63
2023-04-17T07:41:35.548Z,24.27
2023-04-17T07:43:38.963Z,21.58
2023-04-17T07:45:42.307Z,22.17
2023-04-17T07:47:47.700Z,22.40
2023-04-17T07:49:51.445Z,21.58
2023-04-17T07:51:55.845Z,21.88
2023-04-17T07:53:59.227Z,20.02
2023-04-17T07:56:02.638Z,20.80
2023-04-17T07:58:06.570Z,20.00
2023-04-17T08:00:11.385Z,19.75
2023-04-17T08:02:19.052Z,19.58
2023-04-17T08:04:26.182Z,18.65
2023-04-17T08:06:29.808Z,19.02
2023-04-17T08:08:33.184Z,18.50
2023-04-17T08:10:36.592Z,17.50
2023-04-17T08:12:40.043Z,16.63
2023-04-17T08:14:43.839Z,16.10
2023-04-17T08:16:47.366Z,16.20
2023-04-17T08:18:50.763Z,14.55
2023-04-17T08:20:55.640Z,15.43
2023-04-17T08:22:59.043Z,16.98
2023-04-17T08:25:03.141Z,16.17
2023-04-17T08:27:07.938Z,16.02
2023-04-17T08:29:11.600Z,15.95
2023-04-17T08:31:15.344Z,16.13
2023-04-17T08:33:19.094Z,16.35
2023-04-17T08:35:22.568Z,16.35
2023-04-17T08:37:28.238Z,15.27
2023-04-17T08:39:31.572Z,15.52
2023-04-17T08:41:40.810Z,15.25
2023-04-17T08:43:49.785Z,14.15
2023-04-17T08:45:55.445Z,13.48
2023-04-17T08:47:59.067Z,14.05
2023-04-17T08:50:09.804Z,13.75
2023-04-17T08:52:13.154Z,12.93
2023-04-17T08:54:19.507Z,12.65
2023-04-17T08:56:23.201Z,11.30
2023-04-17T08:58:28.686Z,11.18
2023-04-17T09:00:33.696Z,11.38
2023-04-17T09:02:53.767Z,9.57
2023-04-17T09:04:57.298Z,10.40
2023-04-17T09:07:00.814Z,10.05
2023-04-17T09:09:04.885Z,10.07
2023-04-17T09:11:19.112Z,9.80
2023-04-17T09:13:25.082Z,10.90
2023-04-17T09:15:28.711Z,11.27
2023-04-17T09:17:38.031Z,11.48
2023-04-17T09:20:07.863Z,11.30
2023-04-17T09:22:21.932Z,10.15
2023-04-17T09:24:34.526Z,10.40
2023-04-17T09:26:39.463Z,11.55
2023-04-17T09:29:01.072Z,10.77
2023-04-17T09:33:10.347Z,11.55
2023-04-17T09:35:25.771Z,11.75
2023-04-17T09:37:49.620Z,12.18
2023-04-17T09:40:00.551Z,11.40
2023-04-17T09:42:06.226Z,11.18
2023-04-17T09:44:10.071Z,10.68
2023-04-17T09:46:14.364Z,11.10
2023-04-17T09:48:18.470Z,11.00
2023-04-17T09:50:22.844Z,10.85
2023-04-17T09:52:26.301Z,10.30
2023-04-17T09:54:31.583Z,10.15
2023-04-17T09:56:37.904Z,10.15
2023-04-17T09:58:43.187Z,9.75
2023-04-17T10:00:46.937Z,10.20
2023-04-17T10:02:52.363Z,10.43
2023-04-17T10:04:55.963Z,10.02
2023-04-17T10:06:59.393Z,9.77
2023-04-17T10:09:04.080Z,10.25
2023-04-17T10:11:08.800Z,9.43
2023-04-17T10:13:13.297Z,9.13
2023-04-17T10:15:18.710Z,8.93
2023-04-17T10:17:26.413Z,8.98
2023-04-17T10:19:31.549Z,9.07
2023-04-17T10:21:35.119Z,8.98
2023-04-17T10:23:40.116Z,9.43
2023-04-17T10:25:43.848Z,10.10
2023-04-17T10:27:51.106Z,9.90
2023-04-17T10:29:55.155Z,10.98
2023-04-17T10:32:25.932Z,10.13
2023-04-17T10:34:39.952Z,10.60
2023-04-17T10:36:51.363Z,10.85
2023-04-17T10:38:54.663Z,10.73
2023-04-17T10:40:59.423Z,10.52
2023-04-17T10:43:08.683Z,9.70
2023-04-17T10:45:20.213Z,10.73
2023-04-17T10:47:31.881Z,11.20
2023-04-17T10:49:48.476Z,11.18
2023-04-17T10:51:52.639Z,11.07
2023-04-17T10:53:57.811Z,13.85
2023-04-17T10:56:09.213Z,11.10
2023-04-17T11:00:18.755Z,10.75
2023-04-17T11:02:34.778Z,11.75
2023-04-17T11:04:40.724Z,10.68
2023-04-17T11:06:47.069Z,10.73
2023-04-17T11:08:51.510Z,9.80
2023-04-17T11:10:59.531Z,9.70
2023-04-17T11:13:05.353Z,10.35
2023-04-17T11:15:10.483Z,9.48
2023-04-17T11:17:14.097Z,10.88
2023-04-17T11:19:23.201Z,10.40
2023-04-17T11:21:27.765Z,9.65
2023-04-17T11:23:34.972Z,10.18
2023-04-17T11:25:38.704Z,10.18
2023-04-17T11:27:42.475Z,9.40
2023-04-17T11:29:46.665Z,8.80
2023-04-17T11:31:53.859Z,8.07
2023-04-17T11:34:00.344Z,7.18
2023-04-17T11:36:06.161Z,6.97
2023-04-17T11:38:17.558Z,6.70
2023-04-17T11:40:24.303Z,6.70
2023-04-17T11:42:28.539Z,6.30
2023-04-17T11:44:31.910Z,6.85
2023-04-17T11:46:35.932Z,6.65
2023-04-17T11:48:39.492Z,6.47
2023-04-17T11:50:45.664Z,6.60
2023-04-17T11:52:50.590Z,5.88
2023-04-17T11:54:59.398Z,5.93
2023-04-17T11:57:04.466Z,6.22
2023-04-17T11:59:09.304Z,6.35
2023-04-17T12:01:16.332Z,6.95
2023-04-17T12:03:45.544Z,6.10
2023-04-17T12:06:00.920Z,6.22
2023-04-17T12:08:08.382Z,5.90
2023-04-17T12:10:12.095Z,5.50
2023-04-17T12:12:16.587Z,5.50
2023-04-17T12:14:20.134Z,5.80
2023-04-17T12:16:24.800Z,5.97
2023-04-17T12:18:28.312Z,6.38
2023-04-17T12:20:31.683Z,6.40
2023-04-17T12:22:34.978Z,6.05
2023-04-17T12:24:39.733Z,6.70
2023-04-17T12:26:47.501Z,6.60
2023-04-17T12:28:50.929Z,7.30
2023-04-17T12:30:54.361Z,7.22
2023-04-17T12:32:57.821Z,7.30
2023-04-17T12:35:01.300Z,7.28
2023-04-17T12:37:04.661Z,7.32
2023-04-17T12:39:08.059Z,7.32
2023-04-17T12:41:13.200Z,7.38
2023-04-17T12:43:16.528Z,7.45
2023-04-17T12:45:21.298Z,7.63
2023-04-17T12:47:24.671Z,7.10
2023-04-17T12:49:27.989Z,7.20
2023-04-17T12:51:32.320Z,6.97
2023-04-17T12:53:36.330Z,6.75
2023-04-17T12:55:40.923Z,7.18
2023-04-17T12:57:46.195Z,7.28
2023-04-17T12:59:50.056Z,7.28
2023-04-17T13:01:53.386Z,7.35
2023-04-17T13:03:57.301Z,7.57
2023-04-17T13:06:00.889Z,7.28
2023-04-17T13:08:04.296Z,7.40
2023-04-17T13:10:08.752Z,6.88
2023-04-17T13:12:13.084Z,7.20
2023-04-17T13:14:17.921Z,6.78
2023-04-17T13:16:21.313Z,7.05
2023-04-17T13:18:24.728Z,6.70
2023-04-17T13:20:28.040Z,6.53
2023-04-17T13:22:31.484Z,6.53
2023-04-17T13:24:35.793Z,6.00
2023-04-17T13:26:39.299Z,5.93
2023-04-17T13:28:42.620Z,6.20
2023-04-17T13:30:47.449Z,7.00
2023-04-17T13:32:50.788Z,6.55
2023-04-17T13:34:54.389Z,6.78
2023-04-17T13:36:58.655Z,6.03
2023-04-17T13:39:01.939Z,6.90
2023-04-17T13:41:05.202Z,7.00
2023-04-17T13:43:09.186Z,6.82
2023-04-17T13:45:13.425Z,7.20
2023-04-17T13:47:18.127Z,6.70
2023-04-17T13:49:21.718Z,6.97
2023-04-17T13:51:25.165Z,6.93
2023-04-17T13:53:28.512Z,6.82
2023-04-17T13:55:31.913Z,6.68
2023-04-17T13:57:35.713Z,6.25
2023-04-17T13:59:39.077Z,6.00
2023-04-17T14:01:42.446Z,6.30
2023-04-17T14:03:47.647Z,5.45
2023-04-17T14:05:51.290Z,6.43
2023-04-17T14:07:54.753Z,5.80
2023-04-17T14:09:58.080Z,5.45
2023-04-17T14:12:02.497Z,5.68
2023-04-17T14:14:06.394Z,5.43
2023-04-17T14:16:09.812Z,5.60
2023-04-17T14:18:13.655Z,4.95
2023-04-17T14:20:20.035Z,5.10
2023-04-17T14:22:23.401Z,5.50
2023-04-17T14:24:27.006Z,4.80
2023-04-17T14:26:30.534Z,5.45
2023-04-17T14:28:34.913Z,5.00
2023-04-17T14:30:38.665Z,5.18
2023-04-17T14:32:42.184Z,5.68
2023-04-17T14:34:45.685Z,5.22
2023-04-17T14:36:51.027Z,5.32
2023-04-17T14:38:55.132Z,5.50
2023-04-17T14:41:00.914Z,5.60
2023-04-17T14:43:04.321Z,5.30
2023-04-17T14:45:09.032Z,5.03
2023-04-17T14:47:13.167Z,5.82
2023-04-17T14:49:20.523Z,6.32
2023-04-17T14:51:25.443Z,5.82
2023-04-17T14:53:30.087Z,6.20
2023-04-17T14:55:33.510Z,5.93
2023-04-17T14:57:39.275Z,6.47
2023-04-17T14:59:44.504Z,6.93
2023-04-17T15:01:48.207Z,6.40
2023-04-17T15:03:51.954Z,6.10
2023-04-17T15:05:58.082Z,5.72
2023-04-17T15:08:03.132Z,5.85
2023-04-17T15:10:15.913Z,6.35
2023-04-17T15:12:21.393Z,6.78
2023-04-17T15:14:25.919Z,6.28
2023-04-17T15:16:29.298Z,6.55
2023-04-17T15:18:32.664Z,6.03
2023-04-17T15:20:36.526Z,6.70
2023-04-17T15:22:41.129Z,6.72
2023-04-17T15:24:45.115Z,6.57
2023-04-17T15:26:51.274Z,6.55
2023-04-17T15:28:54.656Z,6.60
2023-04-17T15:31:01.429Z,6.15
2023-04-17T15:33:10.287Z,6.60
2023-04-17T15:35:15.081Z,6.47
2023-04-17T15:37:18.463Z,6.93
2023-04-17T15:39:21.781Z,7.80
2023-04-17T15:41:25.229Z,6.90
2023-04-17T15:43:30.079Z,7.50
2023-04-17T15:45:33.671Z,7.03
2023-04-17T15:47:37.383Z,7.15
2023-04-17T15:49:40.953Z,6.88
2023-04-17T15:51:45.686Z,7.10
2023-04-17T15:53:52.365Z,6.88
2023-04-17T15:55:55.652Z,6.93
2023-04-17T15:57:59.365Z,6.63
2023-04-17T16:00:05.357Z,7.43
2023-04-17T16:02:14.092Z,6.97
2023-04-17T16:04:20.219Z,6.72
2023-04-17T16:06:25.151Z,7.10
2023-04-17T16:08:29.940Z,6.75
2023-04-17T16:10:33.254Z,6.45
2023-04-17T16:12:40.443Z,6.57
2023-04-17T16:14:44.851Z,6.43
2023-04-17T16:16:54.194Z,6.43
2023-04-17T16:18:58.557Z,6.78
2023-04-17T16:21:01.892Z,6.82
2023-04-17T16:23:05.328Z,6.35
2023-04-17T16:25:13.027Z,6.20
2023-04-17T16:27:16.914Z,6.05
2023-04-17T16:29:20.290Z,6.40
2023-04-17T16:31:26.040Z,6.25
2023-04-17T16:33:31.097Z,6.70
2023-04-17T16:35:36.341Z,6.40
2023-04-17T16:37:39.760Z,6.50
2023-04-17T16:39:43.178Z,7.20
2023-04-17T16:41:46.520Z,6.70
2023-04-17T16:43:49.862Z,6.88
2023-04-17T16:45:53.504Z,6.80
2023-04-17T16:47:56.981Z,7.00
2023-04-17T16:50:02.023Z,6.63
2023-04-17T16:52:05.468Z,7.35
2023-04-17T16:54:10.014Z,7.18
2023-04-17T16:56:13.580Z,7.38
2023-04-17T16:58:17.005Z,7.38
2023-04-17T17:00:20.796Z,7.32
2023-04-17T17:02:24.213Z,7.35
2023-04-17T17:04:28.081Z,6.93
2023-04-17T17:06:32.967Z,7.55
2023-04-17T17:08:36.541Z,6.97
2023-04-17T17:10:39.894Z,7.15
2023-04-17T17:12:43.483Z,8.27
2023-04-17T17:14:46.936Z,7.07
2023-04-17T17:16:50.826Z,7.30
2023-04-17T17:18:55.672Z,7.35
2023-04-17T17:21:00.196Z,7.18
2023-04-17T17:23:06.000Z,7.32
2023-04-17T17:25:10.915Z,7.35
2023-04-17T17:27:15.319Z,7.30
2023-04-17T17:29:18.923Z,7.68
2023-04-17T17:31:22.405Z,8.23
2023-04-17T17:33:26.060Z,7.80
2023-04-17T17:35:29.485Z,7.82
2023-04-17T17:37:32.803Z,7.57
2023-04-17T17:39:37.455Z,7.97
2023-04-17T17:41:41.114Z,7.65
2023-04-17T17:43:44.404Z,7.70
2023-04-17T17:45:47.723Z,7.55
2023-04-17T17:47:51.063Z,7.90
2023-04-17T17:49:54.364Z,8.52
2023-04-17T17:51:57.789Z,7.78
2023-04-17T17:54:01.234Z,7.43
2023-04-17T17:56:06.781Z,8.10
2023-04-17T17:58:10.702Z,7.75
2023-04-17T18:00:15.504Z,8.18
2023-04-17T18:02:19.159Z,8.55
2023-04-17T18:04:23.254Z,8.68
2023-04-17T18:06:27.942Z,8.93
2023-04-17T18:08:31.335Z,8.63
2023-04-17T18:10:34.889Z,8.68
2023-04-17T18:12:39.782Z,8.43
2023-04-17T18:14:43.267Z,8.65
2023-04-17T18:16:46.915Z,8.20
2023-04-17T18:18:50.896Z,8.77
2023-04-17T18:20:54.356Z,7.78
2023-04-17T18:22:57.780Z,8.70
2023-04-17T18:25:01.687Z,8.50
2023-04-17T18:27:05.342Z,8.45
2023-04-17T18:29:10.193Z,8.00
2023-04-17T18:31:13.715Z,8.70
2023-04-17T18:33:17.242Z,8.45
2023-04-17T18:35:20.680Z,7.63
2023-04-17T18:37:24.210Z,7.65
2023-04-17T18:39:27.695Z,7.90
2023-04-17T18:41:31.055Z,7.32
2023-04-17T18:43:34.433Z,7.25
2023-04-17T18:45:39.235Z,7.53
2023-04-17T18:47:42.683Z,8.02
2023-04-17T18:49:46.152Z,8.32
2023-04-17T18:51:50.234Z,8.10
2023-04-17T18:53:53.660Z,8.25
2023-04-17T18:55:58.042Z,8.82
2023-04-17T18:58:01.372Z,8.15
2023-04-17T19:00:06.322Z,7.72
2023-04-17T19:02:11.181Z,7.72
2023-04-17T19:04:14.958Z,7.93
2023-04-17T19:06:19.620Z,7.57
2023-04-17T19:08:23.208Z,7.85
2023-04-17T19:10:26.602Z,8.05
2023-04-17T19:12:30.579Z,7.85
2023-04-17T19:14:33.979Z,7.97
2023-04-17T19:16:40.732Z,8.75
2023-04-17T19:18:45.579Z,8.63
2023-04-17T19:20:49.141Z,8.95
2023-04-17T19:22:52.484Z,8.52
2023-04-17T19:24:55.824Z,8.45
2023-04-17T19:26:59.152Z,8.00
2023-04-17T19:29:03.240Z,8.60
2023-04-17T19:31:06.618Z,8.68
2023-04-17T19:33:10.840Z,8.63
2023-04-17T19:35:15.819Z,9.02
2023-04-17T19:37:19.162Z,8.65
2023-04-17T19:39:22.462Z,9.02
2023-04-17T19:41:26.416Z,9.13
2023-04-17T19:43:29.830Z,9.75
2023-04-17T19:45:34.898Z,8.68
2023-04-17T19:47:40.136Z,9.18
2023-04-17T19:49:43.623Z,9.23
2023-04-17T19:51:48.508Z,9.30
2023-04-17T19:53:53.507Z,10.02
2023-04-17T19:55:56.879Z,9.60
2023-04-17T19:58:00.511Z,10.05
2023-04-17T20:00:04.064Z,9.90
2023-04-17T20:02:17.362Z,11.23
2023-04-17T20:04:20.991Z,9.27
2023-04-17T20:06:24.548Z,9.30
2023-04-17T20:08:29.483Z,9.52
2023-04-17T20:10:32.848Z,11.15
2023-04-17T20:12:36.153Z,10.40
2023-04-17T20:14:40.199Z,10.35
2023-04-17T20:16:46.487Z,10.20
2023-04-17T20:18:51.764Z,9.77
2023-04-17T20:20:55.138Z,10.85
2023-04-17T20:22:58.614Z,10.93
2023-04-17T20:25:03.462Z,10.35
2023-04-17T20:27:06.858Z,10.98
2023-04-17T20:29:10.700Z,10.90
2023-04-17T20:31:14.427Z,10.65
2023-04-17T20:33:17.943Z,10.63
2023-04-17T20:35:24.491Z,11.25
2023-04-17T20:37:27.938Z,10.90
2023-04-17T20:39:32.115Z,11.60
2023-04-17T20:41:38.991Z,11.88
2023-04-17T20:43:43.036Z,11.23
2023-04-17T20:45:48.355Z,11.25
2023-04-17T20:47:56.861Z,11.32
2023-04-17T20:50:00.867Z,11.43
2023-04-17T20:52:05.010Z,10.02
2023-04-17T20:54:08.517Z,11.07
2023-04-17T20:56:11.829Z,11.80
2023-04-17T20:58:16.589Z,11.85
2023-04-17T21:00:20.327Z,11.35
2023-04-17T21:02:23.901Z,11.55
2023-04-17T21:04:27.511Z,11.98
2023-04-17T21:06:30.874Z,11.30
2023-04-17T21:08:34.540Z,11.43
2023-04-17T21:10:38.002Z,12.27
2023-04-17T21:12:41.479Z,11.38
2023-04-17T21:14:46.284Z,12.43
2023-04-17T21:16:49.646Z,12.50
2023-04-17T21:18:53.046Z,12.07
2023-04-17T21:20:56.432Z,12.45
2023-04-17T21:23:00.023Z,12.85
2023-04-17T21:25:03.421Z,13.60
2023-04-17T21:27:06.832Z,13.57
2023-04-17T21:29:10.973Z,12.43
2023-04-17T21:31:16.802Z,14.65
2023-04-17T21:33:20.371Z,12.75
2023-04-17T21:35:23.957Z,14.05
2023-04-17T21:37:27.338Z,13.93
2023-04-17T21:39:33.053Z,13.13
2023-04-17T21:41:36.888Z,13.13
2023-04-17T21:43:40.256Z,13.45
2023-04-17T21:45:43.653Z,14.23
2023-04-17T21:47:48.398Z,14.00
2023-04-17T21:49:51.928Z,14.18
2023-04-17T21:51:55.273Z,13.65
2023-04-17T21:53:58.635Z,13.57
2023-04-17T21:56:02.105Z,13.93
2023-04-17T21:58:05.596Z,14.15
2023-04-17T22:00:12.552Z,13.00
2023-04-17T22:02:16.095Z,13.23
2023-04-17T22:04:20.887Z,13.43
2023-04-17T22:06:24.382Z,14.05
2023-04-17T22:08:27.956Z,13.40
2023-04-17T22:10:31.374Z,13.15
2023-04-17T22:12:34.873Z,13.45
2023-04-17T22:14:38.253Z,12.82
2023-04-17T22:16:41.655Z,13.60
2023-04-17T22:18:45.084Z,13.85
2023-04-17T22:20:50.022Z,12.77
2023-04-17T22:22:54.472Z,13.38
2023-04-17T22:24:57.867Z,13.57
2023-04-17T22:27:01.735Z,13.48
2023-04-17T22:29:05.162Z,13.73
2023-04-17T22:31:08.630Z,14.02
2023-04-17T22:33:11.971Z,13.40
2023-04-17T22:35:15.349Z,13.52
2023-04-17T22:37:20.049Z,13.25
2023-04-17T22:39:23.473Z,13.38
2023-04-17T22:41:26.839Z,14.23
2023-04-17T22:43:30.223Z,13.73
2023-04-17T22:45:33.620Z,13.32
2023-04-17T22:47:36.948Z,13.80
2023-04-17T22:49:40.726Z,13.73
2023-04-17T22:51:44.596Z,13.63
2023-04-17T22:53:49.297Z,14.07
2023-04-17T22:56:01.544Z,14.30
2023-04-17T22:58:04.960Z,13.90
2023-04-17T23:00:10.239Z,14.48
2023-04-17T23:02:13.772Z,14.77
2023-04-17T23:04:17.229Z,14.23
2023-04-17T23:06:23.542Z,14.73
2023-04-17T23:08:26.950Z,15.10
2023-04-17T23:10:31.710Z,15.98
2023-04-17T23:12:35.119Z,15.10
2023-04-17T23:14:38.549Z,15.57
2023-04-17T23:16:41.936Z,15.23
2023-04-17T23:18:45.197Z,15.73
2023-04-17T23:20:48.769Z,15.80
2023-04-17T23:22:53.022Z,16.67
2023-04-17T23:24:56.432Z,16.80
2023-04-17T23:27:01.983Z,16.25
2023-04-17T23:29:05.471Z,16.38
2023-04-17T23:31:08.877Z,16.83
2023-04-17T23:33:12.288Z,17.02
2023-04-17T23:35:15.555Z,17.88
2023-04-17T23:37:18.843Z,16.70
2023-04-17T23:39:22.372Z,17.45
2023-04-17T23:41:26.704Z,18.60
2023-04-17T23:43:31.555Z,17.48
2023-04-17T23:45:34.845Z,17.80
2023-04-17T23:47:38.212Z,17.05
2023-04-17T23:49:41.564Z,17.95
2023-04-17T23:51:44.878Z,18.65
2023-04-17T23:53:49.177Z,18.25
2023-04-17T23:55:52.483Z,18.70
2023-04-17T23:57:56.652Z,19.75
